Impacts METAR Board INFO
IDs:

KORD - Chicago/O'Hare Intl, IL, US

Updated at: 0419 UTC 21 Jan 2018
Potential Impact None Slight Moderate High
Time20/16Z 20/17Z 20/18Z 20/19Z 20/20Z 20/21Z 20/22Z 20/23Z 21/00Z 21/01Z 21/02Z 21/03Z 21/04Z
VIS10 10 10 10 10 10 10 10 10 9 9 8 8
CIG250 250 250 250 250 -- 250 -- 21 21 18 17 20
CoverBKNBKNBKNBKNBKNSCTBKNSCTBKNOVCOVCOVCOVC
FltCatVFRVFRVFRVFRVFRVFRVFRVFRMVFRMVFRMVFRMVFRMVFR
WX--------------------------
WDir230240230240220220220230190200220190200
WSpd7 7 7 8 10 7 8 4 4 10 7 6 5
WGst-- -- -- -- -- -- -- -- -- -- -- -- --
Raw hourly METARs
KORD 201551Z 23007KT 10SM FEW150 BKN250 04/M02 A2992 RMK AO2 SLP137 T00391022
KORD 201651Z 24007KT 10SM FEW150 SCT210 BKN250 05/M02 A2993 RMK AO2 SLP140 T00501017
KORD 201751Z 23007KT 10SM FEW150 FEW210 BKN250 06/M01 A2992 RMK AO2 SLP135 T00561011 10056 20000 50002
KORD 201851Z 24008KT 10SM FEW150 FEW210 BKN250 07/M01 A2991 RMK AO2 SLP132 T00671006
KORD 201951Z 22010KT 10SM FEW200 BKN250 07/00 A2990 RMK AO2 SLP131 T00720000
KORD 202051Z 22007KT 10SM SCT250 07/00 A2991 RMK AO2 SLP132 T00720000 55003
KORD 202151Z 22008KT 10SM BKN250 07/01 A2994 RMK AO2 SLP141 T00720006
KORD 202251Z 23004KT 10SM FEW020 SCT250 06/01 A2995 RMK AO2 SLP147 T00560006
KORD 202351Z 19004KT 10SM BKN021 04/01 A2996 RMK AO2 SLP152 T00390006 10072 20039 51019
KORD 210051Z 20010KT 9SM OVC021 06/02 A2998 RMK AO2 SLP156 T00560022
KORD 210151Z 22007KT 9SM OVC018 05/02 A2999 RMK AO2 SLP159 T00500022
KORD 210251Z 19006KT 8SM OVC017 04/02 A2997 RMK AO2 SLP154 T00440017 50002
KORD 210351Z 20005KT 8SM OVC020 04/02 A2998 RMK AO2 SLP157 T00440017